Time;durP1;ratioP1;P1;durP2;ratioP2;P2;SDS_P1;SDS_P2;PMS_P1;PMS_P2;Temp;Humidity;BMP_temperature;BMP_pressure;BME280_temperature;BME280_humidity;BME280_pressure;Samples;Min_cycle;Max_cycle;Signal;HPM_P1;HPM_P2
2021/11/16 00:00:45;;;;;;;20.53;14.00;;;;;;;;;;5042957;28;20255;-73
2021/11/16 00:03:13;;;;;;;21.47;13.63;;;;;;;;;;5021720;28;20281;-74
2021/11/16 00:05:41;;;;;;;22.27;13.83;;;;;;;;;;5011602;28;20603;-74
2021/11/16 00:08:09;;;;;;;19.80;13.73;;;;;;;;;;5020574;28;20295;-73
2021/11/16 00:10:35;;;;;;;20.27;14.60;;;;;;;;;;5014975;28;20308;-74
2021/11/16 00:13:10;;;;;;;24.80;14.17;;;;;;;;;;5030570;28;20701;-73
2021/11/16 00:15:40;;;;;;;21.67;14.87;;;;;;;;;;5031037;28;20212;-74
2021/11/16 00:18:08;;;;;;;19.13;13.93;;;;;;;;;;5014608;28;20239;-74
2021/11/16 00:20:38;;;;;;;19.87;14.03;;;;;;;;;;5014870;28;20224;-73
2021/11/16 00:23:06;;;;;;;19.40;14.10;;;;;;;;;;5010946;28;20690;-73
2021/11/16 00:25:37;;;;;;;19.10;13.50;;;;;;;;;;4995263;28;20267;-74
2021/11/16 00:28:04;;;;;;;20.50;14.67;;;;;;;;;;5021922;28;20235;-74
2021/11/16 00:30:35;;;;;;;20.03;15.03;;;;;;;;;;5039232;28;20307;-73
2021/11/16 00:33:02;;;;;;;21.67;14.00;;;;;;;;;;5030839;28;20231;-73
2021/11/16 00:35:37;;;;;;;23.00;15.57;;;;;;;;;;5014489;28;20685;-73
2021/11/16 00:38:06;;;;;;;20.70;13.93;;;;;;;;;;5031409;28;20212;-74
2021/11/16 00:40:37;;;;;;;18.83;14.10;;;;;;;;;;5030845;28;20706;-73
2021/11/16 00:43:07;;;;;;;18.27;13.73;;;;;;;;;;5013219;28;20239;-73
2021/11/16 00:45:41;;;;;;;22.90;15.10;;;;;;;;;;5030256;28;20216;-74
2021/11/16 00:48:12;;;;;;;21.43;14.60;;;;;;;;;;5046727;28;20294;-74
2021/11/16 00:50:43;;;;;;;22.03;14.70;;;;;;;;;;5014956;28;20223;-73
2021/11/16 00:53:13;;;;;;;20.13;14.63;;;;;;;;;;4998387;28;20232;-74
2021/11/16 00:55:39;;;;;;;20.07;14.70;;;;;;;;;;5014438;28;20757;-74
2021/11/16 00:58:04;;;;;;;23.17;14.67;;;;;;;;;;5029673;28;20220;-73
2021/11/16 01:00:30;;;;;;;21.10;14.37;;;;;;;;;;4981273;28;20629;-73
2021/11/16 01:02:55;;;;;;;19.77;14.57;;;;;;;;;;5012543;28;20701;-74
2021/11/16 01:05:21;;;;;;;19.60;14.40;;;;;;;;;;4996152;28;20216;-74
2021/11/16 01:07:47;;;;;;;19.17;13.73;;;;;;;;;;5030182;28;20721;-74
2021/11/16 01:10:14;;;;;;;20.17;14.37;;;;;;;;;;5013099;28;20322;-73
2021/11/16 01:12:40;;;;;;;19.13;14.47;;;;;;;;;;5002138;28;20228;-73
2021/11/16 01:15:06;;;;;;;22.20;15.53;;;;;;;;;;5012490;28;20227;-74
2021/11/16 01:17:32;;;;;;;21.83;14.80;;;;;;;;;;4997281;28;20242;-74
2021/11/16 01:20:00;;;;;;;19.87;15.07;;;;;;;;;;5013755;28;20228;-74
2021/11/16 01:22:30;;;;;;;21.10;14.70;;;;;;;;;;5012959;28;20220;-74
2021/11/16 01:24:56;;;;;;;22.70;14.53;;;;;;;;;;4997543;28;20677;-74
2021/11/16 01:27:26;;;;;;;22.43;14.33;;;;;;;;;;4996258;28;20224;-74
2021/11/16 01:29:52;;;;;;;23.17;15.47;;;;;;;;;;5021835;28;20220;-73
2021/11/16 01:32:35;;;;;;;21.17;15.23;;;;;;;;;;5041912;28;20247;-73
2021/11/16 01:35:01;;;;;;;20.70;14.00;;;;;;;;;;5014546;28;20305;-74
2021/11/16 01:37:31;;;;;;;22.73;15.40;;;;;;;;;;5049258;28;20231;-74
2021/11/16 01:40:01;;;;;;;24.20;15.80;;;;;;;;;;5022699;28;20232;-73
2021/11/16 01:42:27;;;;;;;22.67;15.70;;;;;;;;;;5023336;28;20642;-74
2021/11/16 01:44:57;;;;;;;22.30;15.60;;;;;;;;;;5028681;28;20235;-74
2021/11/16 01:47:22;;;;;;;21.10;15.03;;;;;;;;;;5013505;28;20258;-74
2021/11/16 01:49:48;;;;;;;23.47;16.07;;;;;;;;;;4993303;28;20220;-74
2021/11/16 01:52:13;;;;;;;22.93;16.00;;;;;;;;;;4993249;28;20224;-73
2021/11/16 01:54:43;;;;;;;25.47;16.73;;;;;;;;;;4999438;28;20247;-74
2021/11/16 01:57:12;;;;;;;26.00;16.60;;;;;;;;;;5030102;28;20701;-73
2021/11/16 01:59:40;;;;;;;21.07;16.00;;;;;;;;;;5038350;28;20235;-74
2021/11/16 02:02:08;;;;;;;24.37;16.90;;;;;;;;;;5011456;28;20713;-74
2021/11/16 02:04:33;;;;;;;24.13;16.17;;;;;;;;;;5023830;28;20705;-74
2021/11/16 02:06:59;;;;;;;23.90;16.93;;;;;;;;;;5012769;28;20354;-73
2021/11/16 02:09:27;;;;;;;25.00;16.27;;;;;;;;;;5028642;28;20220;-73
2021/11/16 02:11:53;;;;;;;25.67;18.13;;;;;;;;;;5028754;28;20223;-74
2021/11/16 02:14:19;;;;;;;25.03;17.50;;;;;;;;;;5011784;28;20239;-73
2021/11/16 02:16:45;;;;;;;22.47;17.00;;;;;;;;;;5028777;28;20219;-73
2021/11/16 02:19:12;;;;;;;26.80;18.57;;;;;;;;;;5028723;28;20277;-73
2021/11/16 02:21:42;;;;;;;26.30;18.00;;;;;;;;;;5012016;28;20231;-73
2021/11/16 02:24:08;;;;;;;24.37;16.60;;;;;;;;;;5028571;28;20733;-74
2021/11/16 02:26:34;;;;;;;24.50;15.77;;;;;;;;;;5012075;28;20303;-73
2021/11/16 02:29:04;;;;;;;25.47;16.93;;;;;;;;;;5037130;28;20219;-74
2021/11/16 02:31:32;;;;;;;22.83;16.50;;;;;;;;;;5028719;28;20216;-73
2021/11/16 02:33:57;;;;;;;25.03;16.43;;;;;;;;;;5012222;28;20675;-74
2021/11/16 02:36:26;;;;;;;25.67;16.80;;;;;;;;;;5018658;28;20216;-73
2021/11/16 02:38:54;;;;;;;25.70;17.43;;;;;;;;;;5010746;28;20689;-73
2021/11/16 02:41:20;;;;;;;25.73;16.50;;;;;;;;;;5030250;28;20277;-73
2021/11/16 02:43:50;;;;;;;27.10;18.00;;;;;;;;;;5032649;28;20236;-73
2021/11/16 02:46:18;;;;;;;23.60;16.93;;;;;;;;;;5016285;28;20228;-73
2021/11/16 02:48:43;;;;;;;24.13;17.17;;;;;;;;;;5032901;28;20220;-75
2021/11/16 02:51:10;;;;;;;26.47;17.13;;;;;;;;;;5015565;28;20230;-73
2021/11/16 02:53:37;;;;;;;24.30;16.73;;;;;;;;;;5016393;28;20224;-74
2021/11/16 02:56:04;;;;;;;26.73;17.47;;;;;;;;;;5031369;28;20239;-74
2021/11/16 02:58:32;;;;;;;27.57;17.67;;;;;;;;;;5039093;28;20231;-74
2021/11/16 03:01:04;;;;;;;26.70;17.97;;;;;;;;;;5040714;28;20219;-74
2021/11/16 03:03:32;;;;;;;27.20;17.27;;;;;;;;;;5031991;28;20924;-73
2021/11/16 03:06:05;;;;;;;27.07;17.77;;;;;;;;;;5031854;28;20212;-74
2021/11/16 03:08:33;;;;;;;28.90;18.23;;;;;;;;;;5015922;28;20708;-74
2021/11/16 03:11:00;;;;;;;26.60;17.83;;;;;;;;;;5033881;28;20216;-73
2021/11/16 03:13:36;;;;;;;27.07;16.87;;;;;;;;;;5014878;28;20324;-73
2021/11/16 03:16:15;;;;;;;24.67;18.30;;;;;;;;;;5031844;28;20924;-73
2021/11/16 03:18:51;;;;;;;27.57;18.60;;;;;;;;;;5016057;28;20251;-73
2021/11/16 03:21:20;;;;;;;26.90;18.13;;;;;;;;;;5003959;28;20242;-74
2021/11/16 03:23:50;;;;;;;28.47;18.63;;;;;;;;;;5042542;28;20204;-74
2021/11/16 03:26:20;;;;;;;26.33;19.10;;;;;;;;;;5037403;28;20220;-73
2021/11/16 03:28:51;;;;;;;25.40;17.40;;;;;;;;;;5045974;28;20213;-73
2021/11/16 03:31:36;;;;;;;26.33;18.97;;;;;;;;;;5057384;28;20724;-73
2021/11/16 03:34:04;;;;;;;27.57;18.67;;;;;;;;;;5035345;28;20220;-72
2021/11/16 03:36:34;;;;;;;28.87;19.10;;;;;;;;;;5044608;28;20272;-73
2021/11/16 03:39:01;;;;;;;28.13;18.70;;;;;;;;;;5044903;28;20236;-73
2021/11/16 03:41:28;;;;;;;29.63;20.53;;;;;;;;;;5030570;28;20693;-74
2021/11/16 03:43:54;;;;;;;29.73;19.93;;;;;;;;;;5046026;28;20269;-75
2021/11/16 03:46:21;;;;;;;29.20;19.20;;;;;;;;;;5035542;28;20819;-73
2021/11/16 03:48:49;;;;;;;28.23;19.30;;;;;;;;;;5032496;28;20215;-73
2021/11/16 03:51:19;;;;;;;31.53;20.03;;;;;;;;;;5014999;28;20220;-75
2021/11/16 03:53:49;;;;;;;29.10;19.90;;;;;;;;;;5031209;28;20231;-73
2021/11/16 03:56:15;;;;;;;30.17;19.57;;;;;;;;;;5013783;28;20208;-75
2021/11/16 03:58:42;;;;;;;27.80;19.23;;;;;;;;;;5022964;28;20234;-74
2021/11/16 04:01:08;;;;;;;29.77;20.07;;;;;;;;;;5058276;28;20223;-74
2021/11/16 04:03:35;;;;;;;32.63;20.20;;;;;;;;;;5027381;28;20230;-73
2021/11/16 04:06:01;;;;;;;32.53;20.40;;;;;;;;;;4998307;28;20702;-74
2021/11/16 04:08:27;;;;;;;31.97;19.90;;;;;;;;;;5030700;28;20372;-74
2021/11/16 04:10:52;;;;;;;34.70;21.00;;;;;;;;;;5030858;28;20330;-74
2021/11/16 04:13:18;;;;;;;32.33;21.00;;;;;;;;;;5013790;28;20671;-74
2021/11/16 04:15:47;;;;;;;33.57;22.17;;;;;;;;;;5030761;28;20217;-74
2021/11/16 04:18:18;;;;;;;36.43;23.53;;;;;;;;;;4998782;28;20262;-74
2021/11/16 04:20:46;;;;;;;34.83;22.33;;;;;;;;;;5030833;28;20248;-72
2021/11/16 04:23:14;;;;;;;36.67;22.87;;;;;;;;;;5010634;28;20232;-74
2021/11/16 04:25:47;;;;;;;31.77;22.30;;;;;;;;;;4998040;28;20220;-73
2021/11/16 04:28:15;;;;;;;33.07;21.83;;;;;;;;;;5007968;28;20215;-74
2021/11/16 04:30:44;;;;;;;32.07;21.03;;;;;;;;;;5042675;28;20207;-74
2021/11/16 04:33:11;;;;;;;31.37;21.10;;;;;;;;;;5030514;28;20258;-74
2021/11/16 04:35:37;;;;;;;31.67;21.63;;;;;;;;;;5014219;28;20239;-74
2021/11/16 04:38:08;;;;;;;34.17;22.07;;;;;;;;;;4994173;28;20307;-74
2021/11/16 04:40:43;;;;;;;35.97;22.37;;;;;;;;;;5014633;28;20262;-74
2021/11/16 04:43:12;;;;;;;35.43;22.23;;;;;;;;;;4998494;28;20306;-74
2021/11/16 04:45:38;;;;;;;31.33;22.57;;;;;;;;;;5030576;28;20219;-73
2021/11/16 04:48:19;;;;;;;37.23;23.47;;;;;;;;;;5013337;28;20219;-73
2021/11/16 05:04:17;;;;;;;36.27;22.07;;;;;;;;;;5027851;28;20319;-73
2021/11/16 05:06:44;;;;;;;38.00;23.93;;;;;;;;;;4997436;28;20314;-73
2021/11/16 05:09:10;;;;;;;35.80;23.27;;;;;;;;;;5010372;28;20227;-72
2021/11/16 05:11:38;;;;;;;33.03;22.10;;;;;;;;;;5035327;28;20223;-74
2021/11/16 05:14:06;;;;;;;33.97;23.53;;;;;;;;;;5029021;28;20228;-73
2021/11/16 05:16:37;;;;;;;34.67;23.57;;;;;;;;;;5029598;28;20228;-73
2021/11/16 05:19:03;;;;;;;37.50;24.10;;;;;;;;;;5030587;28;20239;-75
2021/11/16 05:21:28;;;;;;;36.70;23.67;;;;;;;;;;5029877;28;20303;-74
2021/11/16 05:23:59;;;;;;;40.00;25.73;;;;;;;;;;5027293;28;20273;-74
2021/11/16 05:26:27;;;;;;;38.57;23.43;;;;;;;;;;5011315;28;20227;-72
2021/11/16 05:28:54;;;;;;;34.23;23.90;;;;;;;;;;5032857;28;20212;-73
2021/11/16 05:31:20;;;;;;;37.43;24.23;;;;;;;;;;5049158;28;20261;-72
2021/11/16 05:33:48;;;;;;;36.80;24.10;;;;;;;;;;5029630;28;20228;-73
2021/11/16 05:36:15;;;;;;;34.30;23.63;;;;;;;;;;5001437;28;20641;-73
2021/11/16 05:38:41;;;;;;;38.77;25.00;;;;;;;;;;5026437;28;20238;-74
2021/11/16 05:41:07;;;;;;;36.73;24.60;;;;;;;;;;5011181;28;20212;-74
2021/11/16 05:43:33;;;;;;;39.73;25.30;;;;;;;;;;4996903;28;20306;-75
2021/11/16 05:46:03;;;;;;;39.10;24.77;;;;;;;;;;5013192;28;20220;-74
2021/11/16 05:48:34;;;;;;;37.70;24.70;;;;;;;;;;5030237;28;20811;-73
2021/11/16 05:51:02;;;;;;;37.57;24.50;;;;;;;;;;5011242;28;20216;-74
2021/11/16 05:53:34;;;;;;;38.77;24.37;;;;;;;;;;5027982;28;20696;-74
2021/11/16 05:55:59;;;;;;;39.97;25.67;;;;;;;;;;5027184;28;20253;-74
2021/11/16 05:58:25;;;;;;;40.03;24.83;;;;;;;;;;4995811;28;20240;-74
2021/11/16 06:00:50;;;;;;;39.80;25.43;;;;;;;;;;5031722;28;20216;-74
2021/11/16 06:03:17;;;;;;;38.20;26.27;;;;;;;;;;5011889;28;20701;-73
2021/11/16 06:05:45;;;;;;;41.10;24.37;;;;;;;;;;4996529;28;20657;-74
2021/11/16 06:08:26;;;;;;;40.50;25.83;;;;;;;;;;5028514;28;20769;-75
2021/11/16 06:10:55;;;;;;;38.43;25.70;;;;;;;;;;5022528;28;20310;-73
2021/11/16 06:13:21;;;;;;;40.87;25.37;;;;;;;;;;5028819;28;20702;-76
2021/11/16 06:15:46;;;;;;;61.17;38.87;;;;;;;;;;5045819;28;20216;-75
2021/11/16 06:18:15;;;;;;;44.33;26.60;;;;;;;;;;5030681;28;20643;-76
2021/11/16 06:20:43;;;;;;;40.53;24.97;;;;;;;;;;5045879;28;20318;-74
2021/11/16 06:23:11;;;;;;;40.43;26.40;;;;;;;;;;4994655;28;20855;-73
2021/11/16 06:25:39;;;;;;;42.63;25.40;;;;;;;;;;5012440;28;20732;-74
2021/11/16 06:28:06;;;;;;;39.80;25.70;;;;;;;;;;4998497;28;20215;-73
2021/11/16 06:30:35;;;;;;;43.53;26.73;;;;;;;;;;5027049;28;20211;-74
2021/11/16 06:33:03;;;;;;;41.80;26.90;;;;;;;;;;5020509;28;20281;-74
2021/11/16 06:35:28;;;;;;;39.53;25.87;;;;;;;;;;5027474;28;20220;-74
2021/11/16 06:37:54;;;;;;;44.57;27.03;;;;;;;;;;5011772;28;20311;-74
2021/11/16 06:40:19;;;;;;;44.63;26.20;;;;;;;;;;5028142;28;20246;-74
2021/11/16 06:42:45;;;;;;;43.13;27.17;;;;;;;;;;5012308;28;20255;-74
2021/11/16 06:45:13;;;;;;;45.70;27.57;;;;;;;;;;5011458;28;20216;-74
2021/11/16 06:47:41;;;;;;;45.60;26.10;;;;;;;;;;5011720;28;20216;-74
2021/11/16 06:50:09;;;;;;;41.30;25.87;;;;;;;;;;5027680;28;20226;-74
2021/11/16 06:52:38;;;;;;;43.83;25.80;;;;;;;;;;5030049;28;20212;-74
2021/11/16 06:55:05;;;;;;;42.33;25.73;;;;;;;;;;5005678;28;20216;-74
2021/11/16 06:57:31;;;;;;;41.23;25.70;;;;;;;;;;5012236;28;20219;-74
2021/11/16 06:59:56;;;;;;;38.47;24.60;;;;;;;;;;5020573;28;21055;-73
2021/11/16 07:02:27;;;;;;;40.83;26.23;;;;;;;;;;4995665;28;20315;-73
2021/11/16 07:04:55;;;;;;;42.10;25.27;;;;;;;;;;5013274;28;20216;-74
2021/11/16 07:07:26;;;;;;;38.53;24.30;;;;;;;;;;5012451;28;20295;-74
2021/11/16 07:09:52;;;;;;;37.70;23.73;;;;;;;;;;4998981;28;20294;-74
2021/11/16 07:12:24;;;;;;;42.80;24.87;;;;;;;;;;5028777;28;20230;-74
2021/11/16 07:14:50;;;;;;;41.20;25.30;;;;;;;;;;5012271;28;20306;-75
2021/11/16 07:17:17;;;;;;;43.17;26.13;;;;;;;;;;5011945;28;20295;-74
2021/11/16 07:19:45;;;;;;;43.43;26.73;;;;;;;;;;5028412;28;20231;-74
2021/11/16 07:22:21;;;;;;;41.73;26.87;;;;;;;;;;5027572;28;20217;-74
2021/11/16 07:24:48;;;;;;;39.67;25.10;;;;;;;;;;5011775;28;20715;-74
2021/11/16 07:27:17;;;;;;;42.40;25.23;;;;;;;;;;5028750;28;20216;-73
2021/11/16 07:29:47;;;;;;;40.67;25.03;;;;;;;;;;5020493;28;20224;-73
2021/11/16 07:32:18;;;;;;;42.53;25.63;;;;;;;;;;5034912;28;20230;-74
2021/11/16 07:34:44;;;;;;;44.77;26.97;;;;;;;;;;5050054;28;20219;-73
2021/11/16 07:37:13;;;;;;;46.10;26.37;;;;;;;;;;5031769;28;20216;-74
2021/11/16 07:39:53;;;;;;;46.33;27.80;;;;;;;;;;4999315;28;20227;-74
2021/11/16 07:42:29;;;;;;;41.57;25.57;;;;;;;;;;5030517;28;20711;-74
2021/11/16 07:44:59;;;;;;;43.83;27.80;;;;;;;;;;5032836;28;20227;-74
2021/11/16 07:47:44;;;;;;;43.90;26.67;;;;;;;;;;5031723;28;20273;-74
2021/11/16 07:50:34;;;;;;;41.60;26.80;;;;;;;;;;5030926;28;20793;-74
2021/11/16 07:53:14;;;;;;;45.77;27.33;;;;;;;;;;5040518;28;20232;-74
2021/11/16 07:55:44;;;;;;;42.63;26.07;;;;;;;;;;5030593;28;20230;-73
2021/11/16 07:58:12;;;;;;;44.23;26.20;;;;;;;;;;5034530;28;20581;-75
2021/11/16 08:00:41;;;;;;;48.77;26.53;;;;;;;;;;5007273;28;20252;-73
2021/11/16 08:03:11;;;;;;;45.03;26.53;;;;;;;;;;5030853;28;20220;-74
2021/11/16 08:05:54;;;;;;;43.53;26.23;;;;;;;;;;5012900;28;20223;-74
2021/11/16 08:08:36;;;;;;;40.27;24.93;;;;;;;;;;5033105;28;20257;-74
2021/11/16 08:11:13;;;;;;;44.37;25.03;;;;;;;;;;5031418;28;20251;-75
2021/11/16 08:13:59;;;;;;;41.43;25.23;;;;;;;;;;5031769;28;20776;-74
2021/11/16 08:16:25;;;;;;;40.80;24.57;;;;;;;;;;5015687;28;20216;-74
2021/11/16 08:19:06;;;;;;;43.87;24.07;;;;;;;;;;4998275;28;20224;-74
2021/11/16 08:21:34;;;;;;;41.37;25.47;;;;;;;;;;5014674;28;20246;-74
2021/11/16 08:24:04;;;;;;;41.20;23.13;;;;;;;;;;4982578;28;20714;-75
2021/11/16 08:26:35;;;;;;;40.73;24.33;;;;;;;;;;5014249;28;20220;-74
2021/11/16 08:29:01;;;;;;;44.10;26.33;;;;;;;;;;5023067;28;20965;-74
2021/11/16 08:31:36;;;;;;;42.87;25.77;;;;;;;;;;5016668;28;20227;-74
2021/11/16 08:34:04;;;;;;;44.03;25.40;;;;;;;;;;4979726;28;20331;-74
2021/11/16 08:36:30;;;;;;;42.90;24.80;;;;;;;;;;4978845;28;20280;-74
2021/11/16 08:38:57;;;;;;;44.23;25.77;;;;;;;;;;4993266;28;20244;-73
2021/11/16 08:41:33;;;;;;;40.27;23.60;;;;;;;;;;5005918;28;20244;-74
2021/11/16 08:44:20;;;;;;;40.93;22.63;;;;;;;;;;5022690;28;20736;-74
2021/11/16 08:46:48;;;;;;;40.50;23.63;;;;;;;;;;5030597;28;20310;-74
2021/11/16 08:49:29;;;;;;;41.20;25.00;;;;;;;;;;5014100;28;20216;-74
2021/11/16 08:51:57;;;;;;;41.83;25.10;;;;;;;;;;5011045;28;20212;-74
2021/11/16 08:54:25;;;;;;;40.70;23.53;;;;;;;;;;5011188;28;20225;-74
2021/11/16 08:56:50;;;;;;;41.20;24.20;;;;;;;;;;4978947;28;20279;-73
2021/11/16 08:59:22;;;;;;;41.37;23.57;;;;;;;;;;5037671;28;20663;-74
2021/11/16 09:02:00;;;;;;;39.40;23.93;;;;;;;;;;5041233;28;20710;-74
2021/11/16 09:04:30;;;;;;;40.50;23.17;;;;;;;;;;5029415;28;20228;-74
2021/11/16 09:06:56;;;;;;;37.97;22.23;;;;;;;;;;5013934;28;20277;-73
2021/11/16 09:09:25;;;;;;;41.20;23.67;;;;;;;;;;4996933;28;20219;-73
2021/11/16 09:12:01;;;;;;;38.90;23.53;;;;;;;;;;5030214;28;20220;-75
2021/11/16 09:14:27;;;;;;;40.20;23.00;;;;;;;;;;5029147;28;20278;-74
2021/11/16 09:16:55;;;;;;;45.60;24.37;;;;;;;;;;5013315;28;20232;-74
2021/11/16 09:19:29;;;;;;;40.13;22.93;;;;;;;;;;4999867;28;20231;-73
2021/11/16 09:21:54;;;;;;;39.33;23.10;;;;;;;;;;5031638;28;20839;-74
2021/11/16 09:24:21;;;;;;;36.27;22.47;;;;;;;;;;5029828;28;20231;-74
2021/11/16 09:26:59;;;;;;;43.17;23.70;;;;;;;;;;5013995;28;20228;-73
2021/11/16 09:29:25;;;;;;;40.27;22.93;;;;;;;;;;5022937;28;20220;-74
2021/11/16 09:32:10;;;;;;;38.87;23.00;;;;;;;;;;5028480;28;20218;-74
2021/11/16 09:34:40;;;;;;;32.70;20.37;;;;;;;;;;5015090;28;20306;-74
2021/11/16 09:37:16;;;;;;;30.40;19.60;;;;;;;;;;5015671;28;20355;-73
2021/11/16 09:40:03;;;;;;;33.50;19.40;;;;;;;;;;5000486;28;20236;-73
2021/11/16 09:42:33;;;;;;;35.23;20.47;;;;;;;;;;5027125;28;20227;-73
2021/11/16 09:45:08;;;;;;;34.27;21.00;;;;;;;;;;5029654;28;20247;-73
2021/11/16 09:47:41;;;;;;;33.53;20.50;;;;;;;;;;4997726;28;20220;-74
2021/11/16 09:50:10;;;;;;;32.00;19.07;;;;;;;;;;4995945;28;20228;-75
2021/11/16 09:52:38;;;;;;;31.60;19.23;;;;;;;;;;5013500;28;20220;-74
2021/11/16 09:55:10;;;;;;;31.00;18.33;;;;;;;;;;5029064;28;20216;-72
2021/11/16 09:57:51;;;;;;;34.10;18.93;;;;;;;;;;5016206;28;20235;-74
2021/11/16 10:00:26;;;;;;;30.87;18.93;;;;;;;;;;5037169;28;20231;-74
2021/11/16 10:03:11;;;;;;;35.47;20.53;;;;;;;;;;4998511;28;20223;-74
2021/11/16 10:05:51;;;;;;;31.40;20.10;;;;;;;;;;5017954;28;20243;-75
2021/11/16 10:08:19;;;;;;;32.47;19.37;;;;;;;;;;5034154;28;20210;-75
2021/11/16 10:10:47;;;;;;;34.90;19.23;;;;;;;;;;5048209;28;20220;-74
2021/11/16 10:13:22;;;;;;;36.83;20.63;;;;;;;;;;5012639;28;20213;-74
2021/11/16 10:15:50;;;;;;;32.30;19.03;;;;;;;;;;5007887;28;20827;-74
2021/11/16 10:18:21;;;;;;;33.60;19.37;;;;;;;;;;5024116;28;20608;-74
2021/11/16 10:20:47;;;;;;;29.83;18.47;;;;;;;;;;5024927;28;20221;-74
2021/11/16 10:23:18;;;;;;;32.37;19.23;;;;;;;;;;5025322;28;20223;-74
2021/11/16 10:25:54;;;;;;;28.97;17.87;;;;;;;;;;5016793;28;20282;-74
2021/11/16 10:28:19;;;;;;;28.67;17.10;;;;;;;;;;5029198;28;20239;-74
2021/11/16 10:30:45;;;;;;;28.10;16.53;;;;;;;;;;5022030;28;20309;-74
2021/11/16 10:33:14;;;;;;;24.33;16.10;;;;;;;;;;5028892;28;20270;-74
2021/11/16 10:35:53;;;;;;;27.77;17.43;;;;;;;;;;5029238;28;20224;-74
2021/11/16 10:38:21;;;;;;;30.67;17.70;;;;;;;;;;5015427;28;20219;-75
2021/11/16 10:40:47;;;;;;;27.53;17.40;;;;;;;;;;5012790;28;20299;-75
2021/11/16 10:43:15;;;;;;;30.63;17.60;;;;;;;;;;4984920;28;20631;-74
2021/11/16 10:45:43;;;;;;;31.27;17.83;;;;;;;;;;4992725;28;20904;-74
2021/11/16 10:48:14;;;;;;;28.63;18.13;;;;;;;;;;4997372;28;20212;-73
2021/11/16 10:50:42;;;;;;;26.73;17.73;;;;;;;;;;5012743;28;20647;-74
2021/11/16 10:53:11;;;;;;;28.37;16.87;;;;;;;;;;5012393;28;20220;-75
2021/11/16 10:56:09;;;;;;;26.03;16.23;;;;;;;;;;5028641;28;20244;-74
2021/11/16 10:58:41;;;;;;;27.87;16.20;;;;;;;;;;4982898;28;20331;-73
2021/11/16 11:01:15;;;;;;;29.17;16.87;;;;;;;;;;5024938;28;20219;-74
2021/11/16 11:03:44;;;;;;;25.77;15.30;;;;;;;;;;5045385;28;20232;-74
2021/11/16 11:06:14;;;;;;;26.03;16.43;;;;;;;;;;5033480;28;20258;-73
2021/11/16 11:08:53;;;;;;;23.80;15.37;;;;;;;;;;5019636;28;20263;-74
2021/11/16 11:11:26;;;;;;;26.17;15.27;;;;;;;;;;5032075;28;20243;-74
2021/11/16 11:13:57;;;;;;;28.17;15.40;;;;;;;;;;5032349;28;20219;-74
2021/11/16 11:16:23;;;;;;;24.77;15.53;;;;;;;;;;5031634;28;20306;-74
2021/11/16 11:18:51;;;;;;;27.67;15.00;;;;;;;;;;5032525;28;20311;-74
2021/11/16 11:21:24;;;;;;;26.40;15.43;;;;;;;;;;5015772;28;20239;-74
2021/11/16 11:23:53;;;;;;;26.10;15.10;;;;;;;;;;5016215;28;20220;-74
2021/11/16 11:29:15;;;;;;;29.80;16.53;;;;;;;;;;5022912;28;20208;-74
2021/11/16 11:31:44;;;;;;;29.20;16.43;;;;;;;;;;5001351;28;20217;-73
2021/11/16 11:34:13;;;;;;;30.70;16.83;;;;;;;;;;5001860;28;20228;-74
2021/11/16 11:36:41;;;;;;;26.43;16.63;;;;;;;;;;5032053;28;20232;-73
2021/11/16 11:39:21;;;;;;;27.93;16.67;;;;;;;;;;5047926;28;20319;-74
2021/11/16 11:41:56;;;;;;;29.00;17.33;;;;;;;;;;5009489;28;20700;-74
2021/11/16 11:44:29;;;;;;;23.40;15.20;;;;;;;;;;5023425;28;20231;-74
2021/11/16 11:46:59;;;;;;;29.07;15.90;;;;;;;;;;5015872;28;20275;-74
2021/11/16 11:49:26;;;;;;;25.27;16.10;;;;;;;;;;5011543;28;20217;-74
2021/11/16 11:51:55;;;;;;;26.83;16.93;;;;;;;;;;5001779;28;20682;-74
2021/11/16 11:54:21;;;;;;;30.37;16.03;;;;;;;;;;5015486;28;20228;-74
2021/11/16 11:56:50;;;;;;;28.50;17.27;;;;;;;;;;5015090;28;20243;-74
2021/11/16 11:59:18;;;;;;;25.90;15.60;;;;;;;;;;5009269;28;20220;-74
2021/11/16 12:01:44;;;;;;;26.23;16.37;;;;;;;;;;4999552;28;20228;-73
2021/11/16 12:04:12;;;;;;;24.30;14.80;;;;;;;;;;5014838;28;20226;-73
2021/11/16 12:06:39;;;;;;;27.17;15.60;;;;;;;;;;5028902;28;20254;-72
2021/11/16 12:09:05;;;;;;;25.93;16.23;;;;;;;;;;4998730;28;20232;-73
2021/11/16 12:11:32;;;;;;;27.17;15.87;;;;;;;;;;5012416;28;20228;-74
2021/11/16 12:13:59;;;;;;;24.60;15.57;;;;;;;;;;5014342;28;20220;-74
2021/11/16 12:17:00;;;;;;;26.70;16.17;;;;;;;;;;4998146;28;20595;-73
2021/11/16 12:19:44;;;;;;;25.73;15.00;;;;;;;;;;5027758;28;20238;-73
2021/11/16 12:22:21;;;;;;;24.93;16.37;;;;;;;;;;5014581;28;20774;-74
2021/11/16 12:24:51;;;;;;;26.17;16.13;;;;;;;;;;5015011;28;20298;-73
2021/11/16 12:27:19;;;;;;;28.00;15.47;;;;;;;;;;5028321;28;20690;-73
2021/11/16 12:29:47;;;;;;;25.77;15.27;;;;;;;;;;5023202;28;20222;-73
2021/11/16 12:32:24;;;;;;;24.70;14.90;;;;;;;;;;4982490;28;20224;-73
2021/11/16 12:35:03;;;;;;;22.63;14.37;;;;;;;;;;5014032;28;20212;-73
2021/11/16 12:37:50;;;;;;;20.67;13.23;;;;;;;;;;5029151;28;20226;-74
2021/11/16 12:40:17;;;;;;;20.00;13.10;;;;;;;;;;5032195;28;20331;-73
2021/11/16 12:43:30;;;;;;;20.50;12.43;;;;;;;;;;5030883;28;20227;-74
2021/11/16 12:45:59;;;;;;;20.97;12.80;;;;;;;;;;5029801;28;20211;-73
2021/11/16 12:48:40;;;;;;;20.50;12.73;;;;;;;;;;5014239;28;20685;-72
2021/11/16 12:51:08;;;;;;;21.70;13.60;;;;;;;;;;5031917;28;20226;-72
2021/11/16 12:53:55;;;;;;;21.27;12.83;;;;;;;;;;5031108;28;20248;-73
2021/11/16 12:56:23;;;;;;;19.60;13.60;;;;;;;;;;5025389;28;20232;-72
2021/11/16 12:58:50;;;;;;;21.27;14.53;;;;;;;;;;5024983;28;20342;-72
2021/11/16 13:01:40;;;;;;;20.47;13.40;;;;;;;;;;5033438;28;20235;-72
2021/11/16 13:04:06;;;;;;;21.07;13.20;;;;;;;;;;5015958;28;20228;-73
2021/11/16 13:06:37;;;;;;;23.47;14.50;;;;;;;;;;5032247;28;20227;-71
2021/11/16 13:09:07;;;;;;;21.27;13.43;;;;;;;;;;5032002;28;20274;-71
2021/11/16 13:11:51;;;;;;;21.30;14.93;;;;;;;;;;5015510;28;20232;-72
2021/11/16 13:14:38;;;;;;;21.00;12.87;;;;;;;;;;5023198;28;20774;-72
2021/11/16 13:17:46;;;;;;;19.30;12.43;;;;;;;;;;5029914;28;20220;-72
2021/11/16 13:20:13;;;;;;;79.70;48.60;;;;;;;;;;5035595;28;20224;-73
2021/11/16 13:22:49;;;;;;;26.33;18.33;;;;;;;;;;4993971;28;20219;-72
2021/11/16 13:25:37;;;;;;;27.15;22.85;;;;;;;;;;5005928;28;20450;-70
2021/11/16 13:28:05;;;;;;;22.27;16.03;;;;;;;;;;5027577;28;20208;-71
2021/11/16 13:30:31;;;;;;;19.60;13.13;;;;;;;;;;5012215;28;20212;-72
2021/11/16 13:32:59;;;;;;;19.70;12.60;;;;;;;;;;5029160;28;20318;-72
2021/11/16 13:35:25;;;;;;;20.70;13.53;;;;;;;;;;5027336;28;20220;-72
2021/11/16 13:37:53;;;;;;;20.37;13.60;;;;;;;;;;5029614;28;20270;-72
2021/11/16 13:40:23;;;;;;;19.40;12.37;;;;;;;;;;5012937;28;20619;-72
2021/11/16 13:43:01;;;;;;;20.10;13.27;;;;;;;;;;4995061;28;20596;-72
2021/11/16 13:45:30;;;;;;;20.80;13.10;;;;;;;;;;5011108;28;20582;-72
2021/11/16 13:47:56;;;;;;;20.67;12.80;;;;;;;;;;5028399;28;20220;-72
2021/11/16 13:50:27;;;;;;;20.63;14.30;;;;;;;;;;5009740;28;20307;-73
2021/11/16 13:53:06;;;;;;;20.40;13.73;;;;;;;;;;5011275;28;20221;-72
2021/11/16 13:55:37;;;;;;;20.03;13.57;;;;;;;;;;4995265;28;20220;-73
2021/11/16 13:58:07;;;;;;;20.60;14.17;;;;;;;;;;5010050;28;20697;-74
2021/11/16 14:00:41;;;;;;;18.90;13.03;;;;;;;;;;5015781;28;20247;-74
2021/11/16 14:03:11;;;;;;;22.30;14.03;;;;;;;;;;5026299;28;20224;-73
2021/11/16 14:05:40;;;;;;;20.50;12.60;;;;;;;;;;5013433;28;20211;-72
2021/11/16 14:08:09;;;;;;;19.93;13.00;;;;;;;;;;5000891;28;20567;-71
2021/11/16 14:10:37;;;;;;;20.50;13.00;;;;;;;;;;5023967;28;20212;-72
2021/11/16 14:13:24;;;;;;;21.83;12.37;;;;;;;;;;5026664;28;20232;-73
2021/11/16 14:16:05;;;;;;;21.07;13.30;;;;;;;;;;5013132;28;20220;-74
2021/11/16 14:18:31;;;;;;;21.43;12.67;;;;;;;;;;5028085;28;20223;-72
2021/11/16 14:21:04;;;;;;;17.80;12.20;;;;;;;;;;5028665;28;20220;-72
2021/11/16 14:23:34;;;;;;;19.70;12.37;;;;;;;;;;5011573;28;20230;-75
2021/11/16 14:26:12;;;;;;;20.43;13.37;;;;;;;;;;5010455;28;20264;-73
2021/11/16 14:28:40;;;;;;;20.70;13.87;;;;;;;;;;5021417;28;20306;-74
2021/11/16 14:31:13;;;;;;;20.10;13.47;;;;;;;;;;4997575;28;20219;-73
2021/11/16 14:33:43;;;;;;;18.60;12.93;;;;;;;;;;5026936;28;20216;-73
2021/11/16 14:36:08;;;;;;;17.80;11.83;;;;;;;;;;5003949;28;20232;-73
2021/11/16 14:38:37;;;;;;;20.00;13.67;;;;;;;;;;5032884;28;20243;-73
2021/11/16 14:41:16;;;;;;;15.43;10.37;;;;;;;;;;4998835;28;20286;-73
2021/11/16 14:43:45;;;;;;;18.67;12.00;;;;;;;;;;5015369;28;20264;-71
2021/11/16 14:46:21;;;;;;;16.90;11.40;;;;;;;;;;4989271;28;20294;-72
2021/11/16 14:48:51;;;;;;;15.73;10.97;;;;;;;;;;5015629;28;20277;-72
2021/11/16 14:51:29;;;;;;;16.90;11.73;;;;;;;;;;5015262;28;20732;-73